»·PEaware :: N212CF O61-KMCC

N212CF :: O61-KMCC

FLIGHT INFORMATION

Flight Status: Arrived
Operator: Privately registered:
United States
More flights under this callsign
Pilot: Matt C. (2632)
Aircraft: CESSNA 172 SKYHAWK
(C172)
More flights by this aircraft type
Origin: O61 Cameron
United States
Destination: KMCC McClellan
United States
More flights between these airports :: More routes between these airports
Route: +V6
File this flight plan on PilotEdge
Remarks:
Altitude:
(Current/Filed)
5,000ft
Speed:
(Current/Filed)
110kts
Departed: 19-Dec-18 10:41 PM
Arrived: 19-Dec-18 11:08 PM
Distance/Time
Traveled:
19nm/0:26
Distance/Time
To Go:
Arrived

Flight Plot

Page will automatically refresh every two minutes.

Flight plan parsing failed; only flown route is shown


Map Options




Map Legend


Flown Route
Filed Route
Departure Airport
Arrival Airport
Navaid (VOR, NDB)
Fix

Horizontal Profiles

Position Reports

Time Latitude Longitude Heading Altitude Ground
Speed
19-Dec-18 22:16 38.680270 -120.984050 323 1290ft 0kts
19-Dec-18 22:17 38.680270 -120.984050 323 1290ft 0kts
19-Dec-18 22:18 38.680270 -120.984050 323 1290ft 0kts
19-Dec-18 22:19 38.680270 -120.984051 323 1290ft 0kts
19-Dec-18 22:20 38.680271 -120.984051 323 1290ft 0kts
19-Dec-18 22:21 38.680272 -120.984052 323 1290ft 0kts
19-Dec-18 22:22 38.680272 -120.984052 323 1290ft 0kts
19-Dec-18 22:23 38.680272 -120.984052 323 1290ft 0kts
19-Dec-18 22:24 38.680272 -120.984053 323 1290ft 0kts
19-Dec-18 22:26 38.680273 -120.984053 323 1290ft 0kts
19-Dec-18 22:27 38.680273 -120.984054 323 1290ft 0kts
19-Dec-18 22:28 38.680274 -120.984054 323 1290ft 0kts
19-Dec-18 22:29 38.680274 -120.984055 323 1290ft 0kts
19-Dec-18 22:30 38.680275 -120.984055 323 1290ft 0kts
19-Dec-18 22:31 38.680276 -120.984056 324 1290ft 0kts
19-Dec-18 22:32 38.680276 -120.984056 324 1290ft 0kts
19-Dec-18 22:33 38.680277 -120.984057 324 1290ft 0kts
19-Dec-18 22:34 38.680278 -120.984058 324 1290ft 0kts
19-Dec-18 22:35 38.680278 -120.984058 324 1290ft 0kts
19-Dec-18 22:36 38.680279 -120.984059 324 1290ft 0kts
19-Dec-18 22:37 38.680280 -120.984060 324 1290ft 0kts
19-Dec-18 22:38 38.680281 -120.984060 324 1290ft 0kts
19-Dec-18 22:39 38.680281 -120.984061 324 1290ft 0kts
19-Dec-18 22:40 38.692098 -120.995783 325 1694ft 78kts
19-Dec-18 22:41 38.709125 -121.014728 320 2507ft 82kts
19-Dec-18 22:42 38.720893 -121.032414 296 3123ft 84kts
19-Dec-18 22:43 38.733031 -121.056638 248 3824ft 86kts
19-Dec-18 22:44 38.719169 -121.079264 218 4973ft 80kts
19-Dec-18 22:45 38.704082 -121.102580 227 5588ft 85kts
19-Dec-18 22:46 38.712862 -121.132148 310 5948ft 113kts
19-Dec-18 22:47 38.735256 -121.165143 312 5910ft 128kts
19-Dec-18 22:48 38.758529 -121.198863 315 5981ft 124kts
19-Dec-18 22:49 38.782725 -121.230912 314 6017ft 126kts
19-Dec-18 22:50 38.805587 -121.264847 312 6059ft 126kts
19-Dec-18 22:51 38.830713 -121.294009 351 5919ft 116kts
19-Dec-18 22:52 38.861914 -121.295151 5 5147ft 107kts
19-Dec-18 22:53 38.891222 -121.295541 4 4625ft 104kts
19-Dec-18 22:54 38.920316 -121.296152 344 4694ft 112kts
19-Dec-18 22:55 38.923554 -121.331486 249 4211ft 108kts
19-Dec-18 22:56 38.916531 -121.365767 234 3654ft 92kts
19-Dec-18 22:57 38.893188 -121.383406 196 3022ft 94kts
19-Dec-18 22:58 38.870966 -121.395416 183 2857ft 80kts
19-Dec-18 22:59 38.849199 -121.400346 179 2854ft 79kts
19-Dec-18 23:00 38.827664 -121.400965 168 3001ft 76kts
19-Dec-18 23:01 38.806623 -121.398872 172 2867ft 76kts
19-Dec-18 23:02 38.785948 -121.400536 173 2305ft 67kts
19-Dec-18 23:03 38.765242 -121.400143 174 1748ft 77kts
19-Dec-18 23:04 38.742860 -121.400137 171 1323ft 80kts
19-Dec-18 23:05 38.719495 -121.399977 172 834ft 87kts
19-Dec-18 23:06 38.696174 -121.400608 175 339ft 75kts
19-Dec-18 23:07 38.679964 -121.400534 174 78ft 27kts
19-Dec-18 23:08 38.678800 -121.400512 182 78ft 14kts
19-Dec-18 23:09 38.678800 -121.400512 182 78ft 14kts

Navigation Log

Ident Type
Flight plan parsing failed, navigation log unavailable